Time;durP1;ratioP1;P1;durP2;ratioP2;P2;SDS_P1;SDS_P2;PMS_P1;PMS_P2;Temp;Humidity;BMP_temperature;BMP_pressure;BME280_temperature;BME280_humidity;BME280_pressure;Samples;Min_cycle;Max_cycle;Signal;HPM_P1;HPM_P2
2021/09/11 00:01:34;;;;;;;6.03;2.47;;;;;;;;;;5070344;28;20262;-65
2021/09/11 00:03:59;;;;;;;3.95;2.50;;;;;;;;;;5070868;28;20022;-66
2021/09/11 00:06:24;;;;;;;4.40;2.60;;;;;;;;;;5070554;28;20035;-66
2021/09/11 00:08:50;;;;;;;8.03;3.00;;;;;;;;;;5071235;28;20332;-65
2021/09/11 00:11:16;;;;;;;6.73;3.00;;;;;;;;;;5071266;28;20270;-65
2021/09/11 00:13:41;;;;;;;3.58;2.53;;;;;;;;;;5069173;28;20294;-66
2021/09/11 00:16:06;;;;;;;3.63;2.43;;;;;;;;;;5071082;28;20016;-66
2021/09/11 00:18:32;;;;;;;6.90;2.88;;;;;;;;;;5070511;28;20294;-65
2021/09/11 00:20:57;;;;;;;8.82;3.30;;;;;;;;;;5070492;28;20032;-65
2021/09/11 00:23:22;;;;;;;4.23;2.47;;;;;;;;;;5070177;28;20029;-67
2021/09/11 00:25:47;;;;;;;12.23;3.20;;;;;;;;;;5070702;28;20540;-65
2021/09/11 00:28:12;;;;;;;3.15;2.22;;;;;;;;;;5070316;28;20278;-68
2021/09/11 00:30:37;;;;;;;6.00;2.73;;;;;;;;;;5070478;28;20456;-65
2021/09/11 00:33:03;;;;;;;5.60;2.60;;;;;;;;;;5070185;28;20032;-65
2021/09/11 00:35:28;;;;;;;5.72;2.85;;;;;;;;;;5070590;28;20266;-65
2021/09/11 00:37:53;;;;;;;3.97;2.63;;;;;;;;;;5070917;28;20554;-67
2021/09/11 00:40:18;;;;;;;10.73;3.50;;;;;;;;;;5069920;28;20593;-67
2021/09/11 00:42:47;;;;;;;5.75;2.75;;;;;;;;;;5069963;28;20266;-65
2021/09/11 00:45:14;;;;;;;5.88;3.10;;;;;;;;;;5059219;28;20133;-66
2021/09/11 00:47:39;;;;;;;9.55;3.40;;;;;;;;;;5070213;28;20166;-65
2021/09/11 00:50:04;;;;;;;8.27;3.03;;;;;;;;;;5065898;28;20112;-68
2021/09/11 00:52:30;;;;;;;5.72;2.97;;;;;;;;;;5069898;28;20273;-65
2021/09/11 00:54:55;;;;;;;4.78;2.95;;;;;;;;;;5070801;28;20358;-65
2021/09/11 00:57:21;;;;;;;7.53;2.97;;;;;;;;;;5070327;28;20054;-66
2021/09/11 00:59:46;;;;;;;8.38;3.03;;;;;;;;;;5070614;28;20354;-65
2021/09/11 01:02:11;;;;;;;8.82;3.13;;;;;;;;;;5070115;28;20020;-68
2021/09/11 01:04:36;;;;;;;3.50;2.87;;;;;;;;;;5069931;28;20646;-65
2021/09/11 01:07:02;;;;;;;11.07;3.92;;;;;;;;;;5069735;28;20270;-67
2021/09/11 01:09:27;;;;;;;4.53;2.83;;;;;;;;;;5070311;28;20013;-66
2021/09/11 01:11:53;;;;;;;3.53;2.42;;;;;;;;;;5070196;28;20078;-66
2021/09/11 01:14:18;;;;;;;9.98;4.00;;;;;;;;;;5070018;28;20065;-65
2021/09/11 01:16:43;;;;;;;15.55;4.40;;;;;;;;;;5070461;28;20381;-65
2021/09/11 01:19:08;;;;;;;5.77;3.07;;;;;;;;;;5069918;28;20040;-67
2021/09/11 01:21:33;;;;;;;7.78;3.45;;;;;;;;;;5069618;28;20024;-65
2021/09/11 01:23:59;;;;;;;6.20;3.03;;;;;;;;;;5070161;28;20385;-65
2021/09/11 01:26:24;;;;;;;4.53;3.23;;;;;;;;;;5070478;28;20462;-67
2021/09/11 01:28:49;;;;;;;7.57;3.45;;;;;;;;;;5069464;28;20282;-65
2021/09/11 01:31:14;;;;;;;6.00;3.27;;;;;;;;;;5069647;28;20024;-65
2021/09/11 01:33:40;;;;;;;5.93;3.40;;;;;;;;;;5068458;28;20731;-67
2021/09/11 01:36:05;;;;;;;4.18;2.90;;;;;;;;;;5070377;28;20274;-65
2021/09/11 01:38:30;;;;;;;6.15;3.20;;;;;;;;;;5069458;28;20019;-70
2021/09/11 01:40:55;;;;;;;7.77;3.30;;;;;;;;;;5070185;28;20103;-65
2021/09/11 01:43:30;;;;;;;8.48;2.80;;;;;;;;;;5068643;28;20273;-68
2021/09/11 01:45:56;;;;;;;6.47;2.67;;;;;;;;;;5072340;28;20534;-66
2021/09/11 01:48:21;;;;;;;7.90;3.30;;;;;;;;;;5073793;28;20028;-65
2021/09/11 01:50:47;;;;;;;7.70;3.42;;;;;;;;;;5074068;28;20544;-67
2021/09/11 01:53:12;;;;;;;8.53;3.40;;;;;;;;;;5073631;28;20074;-65
2021/09/11 01:55:37;;;;;;;5.63;3.50;;;;;;;;;;5074099;28;20112;-66
2021/09/11 01:58:02;;;;;;;9.57;4.00;;;;;;;;;;5072946;28;20028;-66
2021/09/11 02:00:27;;;;;;;6.75;3.75;;;;;;;;;;5073034;28;20035;-67
2021/09/11 02:02:52;;;;;;;9.32;3.72;;;;;;;;;;5072596;28;20024;-65
2021/09/11 02:05:18;;;;;;;7.30;3.57;;;;;;;;;;5073311;28;20028;-66
2021/09/11 02:07:43;;;;;;;6.18;3.72;;;;;;;;;;5073767;28;20323;-65
2021/09/11 02:10:09;;;;;;;7.85;4.00;;;;;;;;;;5070772;28;20025;-65
2021/09/11 02:12:34;;;;;;;5.93;3.47;;;;;;;;;;5070136;28;20489;-66
2021/09/11 02:15:00;;;;;;;7.07;4.10;;;;;;;;;;5071723;28;20025;-68
2021/09/11 02:17:25;;;;;;;9.85;3.53;;;;;;;;;;5067371;28;20024;-67
2021/09/11 02:19:50;;;;;;;10.93;3.45;;;;;;;;;;5067690;28;20021;-65
2021/09/11 02:22:16;;;;;;;6.57;3.10;;;;;;;;;;5072970;28;20024;-69
2021/09/11 02:24:41;;;;;;;9.85;3.58;;;;;;;;;;5072906;28;20266;-65
2021/09/11 02:27:07;;;;;;;5.25;3.75;;;;;;;;;;5071298;28;20481;-69
2021/09/11 02:29:32;;;;;;;8.65;3.83;;;;;;;;;;5061225;28;20035;-67
2021/09/11 02:31:57;;;;;;;7.60;3.95;;;;;;;;;;5065812;28;20032;-65
2021/09/11 02:34:23;;;;;;;14.43;3.40;;;;;;;;;;5072350;28;20071;-65
2021/09/11 02:36:48;;;;;;;6.95;3.40;;;;;;;;;;5073371;28;20469;-65
2021/09/11 02:39:13;;;;;;;9.10;4.53;;;;;;;;;;5072823;28;20020;-67
2021/09/11 02:41:38;;;;;;;8.55;4.05;;;;;;;;;;5063643;28;20297;-65
2021/09/11 02:44:04;;;;;;;12.45;4.35;;;;;;;;;;5062639;28;20118;-67
2021/09/11 02:46:30;;;;;;;6.50;3.88;;;;;;;;;;5069402;28;20035;-66
2021/09/11 02:48:55;;;;;;;6.88;4.00;;;;;;;;;;5073108;28;20059;-66
2021/09/11 02:51:20;;;;;;;8.02;4.10;;;;;;;;;;5072374;28;21724;-65
2021/09/11 02:53:45;;;;;;;9.90;4.67;;;;;;;;;;5072578;28;20123;-66
2021/09/11 02:56:11;;;;;;;13.47;4.60;;;;;;;;;;5071072;28;20025;-66
2021/09/11 02:58:36;;;;;;;8.07;4.77;;;;;;;;;;5073139;28;20251;-65
2021/09/11 03:01:01;;;;;;;13.80;4.65;;;;;;;;;;5072300;28;20294;-66
2021/09/11 03:03:26;;;;;;;9.67;5.03;;;;;;;;;;5072074;28;20028;-68
2021/09/11 03:05:52;;;;;;;7.97;5.13;;;;;;;;;;5069878;28;20082;-68
2021/09/11 03:08:17;;;;;;;11.17;6.13;;;;;;;;;;5070229;28;20262;-68
2021/09/11 03:10:42;;;;;;;10.90;5.38;;;;;;;;;;5071629;28;20658;-68
2021/09/11 03:13:07;;;;;;;13.75;6.90;;;;;;;;;;5072259;28;20436;-68
2021/09/11 03:15:32;;;;;;;9.43;5.80;;;;;;;;;;5069311;28;20127;-68
2021/09/11 03:17:57;;;;;;;12.07;5.80;;;;;;;;;;5062301;28;20271;-68
2021/09/11 03:20:23;;;;;;;10.70;5.73;;;;;;;;;;5059216;28;20333;-68
2021/09/11 03:22:48;;;;;;;8.80;5.47;;;;;;;;;;5060441;28;20537;-66
2021/09/11 03:25:13;;;;;;;10.73;5.70;;;;;;;;;;5063670;28;20029;-68
2021/09/11 03:27:39;;;;;;;10.43;5.50;;;;;;;;;;5072201;28;20794;-68
2021/09/11 03:30:04;;;;;;;16.70;5.90;;;;;;;;;;5072165;28;20016;-66
2021/09/11 03:32:30;;;;;;;8.35;5.57;;;;;;;;;;5071834;28;20111;-67
2021/09/11 03:34:55;;;;;;;9.67;5.27;;;;;;;;;;5071473;28;20538;-68
2021/09/11 03:37:20;;;;;;;9.03;5.20;;;;;;;;;;5072170;28;20282;-68
2021/09/11 03:39:45;;;;;;;13.30;5.60;;;;;;;;;;5071051;28;20354;-68
2021/09/11 03:42:10;;;;;;;9.55;5.90;;;;;;;;;;5071294;28;20016;-67
2021/09/11 03:44:35;;;;;;;8.93;5.30;;;;;;;;;;5072099;28;20021;-68
2021/09/11 03:47:01;;;;;;;11.68;5.05;;;;;;;;;;5071612;28;20760;-67
2021/09/11 03:49:26;;;;;;;10.20;5.57;;;;;;;;;;5071549;28;20032;-68
2021/09/11 03:51:51;;;;;;;6.87;5.17;;;;;;;;;;5070430;28;20361;-65
2021/09/11 03:54:16;;;;;;;14.60;6.00;;;;;;;;;;5071327;28;20024;-68
2021/09/11 03:56:41;;;;;;;9.77;5.88;;;;;;;;;;5071267;28;20112;-67
2021/09/11 03:59:07;;;;;;;11.60;6.00;;;;;;;;;;5071705;28;20381;-68
2021/09/11 04:01:32;;;;;;;9.77;5.30;;;;;;;;;;5071258;28;20103;-67
2021/09/11 04:03:57;;;;;;;16.63;7.83;;;;;;;;;;5068230;28;20266;-68
2021/09/11 04:06:22;;;;;;;15.77;8.50;;;;;;;;;;5068713;28;20040;-67
2021/09/11 04:08:48;;;;;;;21.30;10.57;;;;;;;;;;5070749;28;20358;-67
2021/09/11 04:11:13;;;;;;;26.50;15.38;;;;;;;;;;5071149;28;20262;-66
2021/09/11 04:13:39;;;;;;;43.63;21.38;;;;;;;;;;5070575;28;20032;-66
2021/09/11 04:16:04;;;;;;;36.07;16.80;;;;;;;;;;5071459;28;20013;-67
2021/09/11 04:18:29;;;;;;;26.20;15.10;;;;;;;;;;5070802;28;20856;-67
2021/09/11 04:20:54;;;;;;;27.08;15.77;;;;;;;;;;5070536;28;20044;-67
2021/09/11 04:23:19;;;;;;;26.37;14.10;;;;;;;;;;5070228;28;20032;-66
2021/09/11 04:25:45;;;;;;;23.87;13.57;;;;;;;;;;5071199;28;20353;-67
2021/09/11 04:28:10;;;;;;;24.95;12.25;;;;;;;;;;5070627;28;20901;-67
2021/09/11 04:30:35;;;;;;;19.40;11.45;;;;;;;;;;5071081;28;20099;-67
2021/09/11 04:33:01;;;;;;;22.20;9.82;;;;;;;;;;5069616;28;20161;-66
2021/09/11 04:35:26;;;;;;;15.77;8.13;;;;;;;;;;5070825;28;20082;-67
2021/09/11 04:37:51;;;;;;;13.73;8.25;;;;;;;;;;5070833;28;20733;-67
2021/09/11 04:40:16;;;;;;;17.35;8.18;;;;;;;;;;5070688;28;20025;-67
2021/09/11 04:42:42;;;;;;;18.97;8.47;;;;;;;;;;5070280;28;20067;-67
2021/09/11 04:45:07;;;;;;;16.77;8.52;;;;;;;;;;5070316;28;20267;-66
2021/09/11 04:47:32;;;;;;;11.95;7.88;;;;;;;;;;5070290;28;20036;-64
2021/09/11 04:49:57;;;;;;;13.65;8.15;;;;;;;;;;5070622;28;20024;-67
2021/09/11 04:52:23;;;;;;;20.30;8.27;;;;;;;;;;5069802;28;20416;-68
2021/09/11 04:54:48;;;;;;;16.13;7.90;;;;;;;;;;5055891;28;20279;-66
2021/09/11 04:57:13;;;;;;;15.20;8.02;;;;;;;;;;5059911;28;20259;-66
2021/09/11 04:59:39;;;;;;;14.00;8.05;;;;;;;;;;5052898;28;20178;-66
2021/09/11 05:02:04;;;;;;;16.25;7.72;;;;;;;;;;5069982;28;20024;-68
2021/09/11 05:04:29;;;;;;;14.27;7.22;;;;;;;;;;5070499;28;20077;-67
2021/09/11 05:06:54;;;;;;;14.05;6.25;;;;;;;;;;5069732;28;20432;-68
2021/09/11 05:09:20;;;;;;;12.13;6.10;;;;;;;;;;5069552;28;20027;-67
2021/09/11 05:11:46;;;;;;;12.23;6.18;;;;;;;;;;5069975;28;20073;-66
2021/09/11 05:14:11;;;;;;;8.30;5.10;;;;;;;;;;5069684;28;20028;-69
2021/09/11 05:16:36;;;;;;;8.63;5.47;;;;;;;;;;5070340;28;20024;-68
2021/09/11 05:19:02;;;;;;;12.57;5.90;;;;;;;;;;5069860;28;20277;-68
2021/09/11 05:21:27;;;;;;;10.98;4.65;;;;;;;;;;5070306;28;20259;-68
2021/09/11 05:23:52;;;;;;;11.13;4.85;;;;;;;;;;5069434;28;20021;-66
2021/09/11 05:26:17;;;;;;;9.13;5.15;;;;;;;;;;5068541;28;20024;-68
2021/09/11 05:28:42;;;;;;;16.93;6.17;;;;;;;;;;5070437;28;20116;-67
2021/09/11 05:31:08;;;;;;;9.07;5.47;;;;;;;;;;5070322;28;20101;-65
2021/09/11 05:33:33;;;;;;;9.47;4.83;;;;;;;;;;5069409;28;20035;-65
2021/09/11 05:35:58;;;;;;;16.17;5.73;;;;;;;;;;5070126;28;20884;-65
2021/09/11 05:38:23;;;;;;;12.13;5.43;;;;;;;;;;5069304;28;20263;-65
2021/09/11 05:40:49;;;;;;;11.32;5.28;;;;;;;;;;5069490;28;20323;-67
2021/09/11 05:43:14;;;;;;;12.32;6.47;;;;;;;;;;5060507;28;20052;-67
2021/09/11 05:45:39;;;;;;;13.10;5.85;;;;;;;;;;5070350;28;20025;-66
2021/09/11 05:48:05;;;;;;;10.88;5.25;;;;;;;;;;5069673;28;20028;-66
2021/09/11 05:50:30;;;;;;;13.45;5.93;;;;;;;;;;5069943;28;20029;-66
2021/09/11 05:52:55;;;;;;;16.10;6.10;;;;;;;;;;5069615;28;20469;-67
2021/09/11 05:55:20;;;;;;;11.80;5.47;;;;;;;;;;5070022;28;20019;-68
2021/09/11 05:57:46;;;;;;;9.67;5.97;;;;;;;;;;5069905;28;20050;-66
2021/09/11 06:00:11;;;;;;;10.20;6.03;;;;;;;;;;5070345;28;20269;-67
2021/09/11 06:02:36;;;;;;;10.90;5.85;;;;;;;;;;5069437;28;20266;-66
2021/09/11 06:05:01;;;;;;;12.70;6.57;;;;;;;;;;5070049;28;20029;-67
2021/09/11 06:07:26;;;;;;;12.63;6.00;;;;;;;;;;5070094;28;20016;-66
2021/09/11 06:09:52;;;;;;;10.07;5.53;;;;;;;;;;5069009;28;20778;-67
2021/09/11 06:12:17;;;;;;;13.37;5.70;;;;;;;;;;5063711;28;20062;-66
2021/09/11 06:14:42;;;;;;;10.73;5.68;;;;;;;;;;5065954;28;20785;-66
2021/09/11 06:17:08;;;;;;;14.00;5.53;;;;;;;;;;5069282;28;20036;-66
2021/09/11 06:19:34;;;;;;;13.18;5.10;;;;;;;;;;5069877;28;20338;-66
2021/09/11 06:21:59;;;;;;;10.25;4.70;;;;;;;;;;5069252;28;20582;-67
2021/09/11 06:24:24;;;;;;;11.00;4.97;;;;;;;;;;5069373;28;20020;-65
2021/09/11 06:26:50;;;;;;;10.93;4.57;;;;;;;;;;5069663;28;20016;-66
2021/09/11 06:29:15;;;;;;;10.97;3.90;;;;;;;;;;5069039;28;20021;-66
2021/09/11 06:31:40;;;;;;;11.40;4.30;;;;;;;;;;5071248;28;20341;-66
2021/09/11 06:34:05;;;;;;;12.27;4.27;;;;;;;;;;5072615;28;20293;-65
2021/09/11 06:36:30;;;;;;;13.97;4.93;;;;;;;;;;5073231;28;20788;-68
2021/09/11 06:38:55;;;;;;;12.67;4.40;;;;;;;;;;5072891;28;20016;-66
2021/09/11 06:41:21;;;;;;;10.80;4.47;;;;;;;;;;5073091;28;20627;-67
2021/09/11 06:43:46;;;;;;;14.73;5.00;;;;;;;;;;5072470;28;20298;-66
2021/09/11 06:46:11;;;;;;;10.55;3.90;;;;;;;;;;5072394;28;20593;-67
2021/09/11 06:48:36;;;;;;;14.77;4.30;;;;;;;;;;5072731;28;20480;-66
2021/09/11 06:51:01;;;;;;;12.32;3.78;;;;;;;;;;5072420;28;20081;-67
2021/09/11 06:53:27;;;;;;;12.45;4.00;;;;;;;;;;5072859;28;20030;-65
2021/09/11 06:55:52;;;;;;;6.40;3.47;;;;;;;;;;5072283;28;20020;-65
2021/09/11 06:58:17;;;;;;;6.00;2.95;;;;;;;;;;5072965;28;20258;-68
2021/09/11 07:00:42;;;;;;;13.85;4.28;;;;;;;;;;5072216;28;20032;-67
2021/09/11 07:03:07;;;;;;;8.17;3.33;;;;;;;;;;5071666;28;20032;-66
2021/09/11 07:05:33;;;;;;;6.43;3.20;;;;;;;;;;5072696;28;20263;-66
2021/09/11 07:07:58;;;;;;;9.65;3.22;;;;;;;;;;5072460;28;20044;-68
2021/09/11 07:10:23;;;;;;;9.13;3.13;;;;;;;;;;5071921;28;20017;-68
2021/09/11 07:12:49;;;;;;;9.30;3.03;;;;;;;;;;5071882;28;20035;-68
2021/09/11 07:15:14;;;;;;;7.82;3.30;;;;;;;;;;5071709;28;20263;-68
2021/09/11 07:17:40;;;;;;;7.10;2.40;;;;;;;;;;5068647;28;20036;-68
2021/09/11 07:20:05;;;;;;;9.82;3.38;;;;;;;;;;5064748;28;20046;-68
2021/09/11 07:22:31;;;;;;;8.20;2.72;;;;;;;;;;5071043;28;20024;-68
2021/09/11 07:24:56;;;;;;;7.90;2.50;;;;;;;;;;5071190;28;20139;-68
2021/09/11 07:27:21;;;;;;;17.63;3.13;;;;;;;;;;5068627;28;20071;-68
2021/09/11 07:29:46;;;;;;;7.50;2.60;;;;;;;;;;5063984;28;20755;-67
2021/09/11 07:32:12;;;;;;;10.77;2.95;;;;;;;;;;5071703;28;20021;-66
2021/09/11 07:34:37;;;;;;;7.78;2.03;;;;;;;;;;5072060;28;20028;-66
2021/09/11 07:37:02;;;;;;;7.28;2.33;;;;;;;;;;5070996;28;20104;-65
2021/09/11 07:39:27;;;;;;;11.80;2.10;;;;;;;;;;5063988;28;20032;-66
2021/09/11 07:41:52;;;;;;;5.67;2.43;;;;;;;;;;5059379;28;20043;-67
2021/09/11 07:44:18;;;;;;;7.80;1.90;;;;;;;;;;5063265;28;20358;-67
2021/09/11 07:46:43;;;;;;;9.80;2.10;;;;;;;;;;5057286;28;20477;-68
2021/09/11 07:49:08;;;;;;;6.43;2.83;;;;;;;;;;5064176;28;20021;-66
2021/09/11 07:51:33;;;;;;;5.50;2.27;;;;;;;;;;5067807;28;20524;-68
2021/09/11 07:53:58;;;;;;;5.80;2.33;;;;;;;;;;5063413;28;20028;-67
2021/09/11 07:56:23;;;;;;;7.07;2.20;;;;;;;;;;5068335;28;20030;-67
2021/09/11 07:58:49;;;;;;;4.65;1.92;;;;;;;;;;5062654;28;20298;-63
2021/09/11 08:01:14;;;;;;;11.88;2.42;;;;;;;;;;5060764;28;20028;-65
2021/09/11 08:03:39;;;;;;;9.10;2.63;;;;;;;;;;5064278;28;20060;-65
2021/09/11 08:06:08;;;;;;;6.37;2.60;;;;;;;;;;5058850;28;20005;-67
2021/09/11 08:08:36;;;;;;;6.30;2.40;;;;;;;;;;5067933;28;20798;-67
2021/09/11 08:11:02;;;;;;;6.72;1.90;;;;;;;;;;5068507;28;20051;-67
2021/09/11 08:13:27;;;;;;;5.47;1.70;;;;;;;;;;5062337;28;20465;-64
2021/09/11 08:15:53;;;;;;;5.45;2.30;;;;;;;;;;5059098;28;20485;-65
2021/09/11 08:18:18;;;;;;;6.10;1.98;;;;;;;;;;5063361;28;20103;-66
2021/09/11 08:20:43;;;;;;;2.60;1.60;;;;;;;;;;5067564;28;20025;-65
2021/09/11 08:23:08;;;;;;;6.70;1.57;;;;;;;;;;5070240;28;20031;-64
2021/09/11 08:25:33;;;;;;;8.30;2.23;;;;;;;;;;5066825;28;20033;-65
2021/09/11 08:27:58;;;;;;;13.67;4.53;;;;;;;;;;5067373;28;20271;-66
2021/09/11 08:30:24;;;;;;;6.23;2.17;;;;;;;;;;5070445;28;20377;-65
2021/09/11 08:32:49;;;;;;;3.97;1.55;;;;;;;;;;5070287;28;20033;-65
2021/09/11 08:35:16;;;;;;;7.77;2.27;;;;;;;;;;5063555;28;20149;-64
2021/09/11 08:37:41;;;;;;;4.88;1.92;;;;;;;;;;5069613;28;20056;-65
2021/09/11 08:40:06;;;;;;;12.23;2.70;;;;;;;;;;5069656;28;20476;-65
2021/09/11 08:42:32;;;;;;;7.07;2.83;;;;;;;;;;5066219;28;20017;-64
2021/09/11 08:44:57;;;;;;;11.10;2.58;;;;;;;;;;5068715;28;20035;-64
2021/09/11 08:47:22;;;;;;;3.83;1.80;;;;;;;;;;5066388;28;20020;-64
2021/09/11 08:49:47;;;;;;;5.87;2.07;;;;;;;;;;5069949;28;20358;-66
2021/09/11 08:52:13;;;;;;;7.73;3.93;;;;;;;;;;5062013;28;20126;-64
2021/09/11 08:54:38;;;;;;;5.63;2.00;;;;;;;;;;5061731;28;20488;-64
2021/09/11 08:57:16;;;;;;;3.63;1.77;;;;;;;;;;5062194;28;20048;-65
2021/09/11 08:59:41;;;;;;;3.85;1.80;;;;;;;;;;5068219;28;20033;-67
2021/09/11 09:02:08;;;;;;;4.93;2.17;;;;;;;;;;5068926;28;20020;-66
2021/09/11 09:05:00;;;;;;;2.10;1.40;;;;;;;;;;5069224;28;20844;-68
2021/09/11 09:07:34;;;;;;;6.53;1.65;;;;;;;;;;5064707;28;20059;-66
2021/09/11 09:10:00;;;;;;;3.97;1.30;;;;;;;;;;5066059;28;20100;-66
2021/09/11 09:12:29;;;;;;;5.15;1.75;;;;;;;;;;5064475;28;20541;-66
2021/09/11 09:15:02;;;;;;;4.95;2.00;;;;;;;;;;5065358;28;20041;-66
2021/09/11 09:17:38;;;;;;;5.85;1.95;;;;;;;;;;5062117;28;20025;-66
2021/09/11 09:20:10;;;;;;;5.78;2.33;;;;;;;;;;5065639;28;20473;-66
2021/09/11 09:22:35;;;;;;;3.72;2.30;;;;;;;;;;5068050;28;20124;-67
2021/09/11 09:25:00;;;;;;;4.67;2.00;;;;;;;;;;5066605;28;20198;-66
2021/09/11 09:27:25;;;;;;;4.23;1.87;;;;;;;;;;5068203;28;20794;-67
2021/09/11 09:29:59;;;;;;;5.43;1.90;;;;;;;;;;5069126;28;20054;-66
2021/09/11 09:32:35;;;;;;;5.35;1.85;;;;;;;;;;5067345;28;20770;-66
2021/09/11 09:35:00;;;;;;;7.32;2.17;;;;;;;;;;5062435;28;20025;-67
2021/09/11 09:37:25;;;;;;;4.73;2.70;;;;;;;;;;5051030;28;20623;-66
2021/09/11 09:39:53;;;;;;;8.20;3.57;;;;;;;;;;5065975;28;20297;-67
2021/09/11 09:42:19;;;;;;;7.43;3.30;;;;;;;;;;5066200;28;20814;-67
2021/09/11 09:44:47;;;;;;;9.57;3.80;;;;;;;;;;5058348;28;20096;-66
2021/09/11 09:47:17;;;;;;;7.75;3.55;;;;;;;;;;5064815;28;20039;-66
2021/09/11 09:50:02;;;;;;;3.70;3.20;;;;;;;;;;5070207;28;20013;-66
2021/09/11 09:52:28;;;;;;;6.50;3.30;;;;;;;;;;5069787;28;20047;-66
2021/09/11 09:54:53;;;;;;;6.63;3.38;;;;;;;;;;5070426;28;20024;-66
2021/09/11 09:57:18;;;;;;;3.80;2.53;;;;;;;;;;5070280;28;20078;-66
2021/09/11 09:59:44;;;;;;;5.68;2.58;;;;;;;;;;5070149;28;20750;-65
2021/09/11 10:02:10;;;;;;;4.35;1.85;;;;;;;;;;5069457;28;20389;-66
2021/09/11 10:04:35;;;;;;;4.05;1.90;;;;;;;;;;5069077;28;20370;-66
2021/09/11 10:07:02;;;;;;;2.75;1.75;;;;;;;;;;5069779;28;20073;-66
2021/09/11 10:09:27;;;;;;;5.97;2.45;;;;;;;;;;5072903;28;20497;-66
2021/09/11 10:11:53;;;;;;;5.38;2.15;;;;;;;;;;5073690;28;20071;-65
2021/09/11 10:14:22;;;;;;;6.75;2.75;;;;;;;;;;5073760;28;20034;-67
2021/09/11 10:17:00;;;;;;;5.35;2.72;;;;;;;;;;5073658;28;20021;-67
2021/09/11 10:19:27;;;;;;;7.85;2.60;;;;;;;;;;5073746;28;20078;-66
2021/09/11 10:22:05;;;;;;;4.75;2.38;;;;;;;;;;5058379;28;20013;-67
2021/09/11 10:24:31;;;;;;;5.38;2.38;;;;;;;;;;5053692;28;20067;-68
2021/09/11 10:26:58;;;;;;;3.67;1.35;;;;;;;;;;5068854;28;20025;-67
2021/09/11 10:29:37;;;;;;;6.32;2.47;;;;;;;;;;5073364;28;20044;-67
2021/09/11 10:32:11;;;;;;;5.15;1.75;;;;;;;;;;5073099;28;20017;-67
2021/09/11 10:34:55;;;;;;;7.07;1.70;;;;;;;;;;5073248;28;20419;-65
2021/09/11 10:37:33;;;;;;;5.32;1.70;;;;;;;;;;5073427;28;20020;-66
2021/09/11 10:40:14;;;;;;;4.32;1.70;;;;;;;;;;5073475;28;20013;-68
2021/09/11 10:43:09;;;;;;;1.98;1.35;;;;;;;;;;5072906;28;20785;-67
2021/09/11 10:45:40;;;;;;;5.88;1.60;;;;;;;;;;5072112;28;20542;-66
2021/09/11 10:48:06;;;;;;;5.85;1.67;;;;;;;;;;5073250;28;20024;-65
2021/09/11 10:50:38;;;;;;;5.82;1.50;;;;;;;;;;5073038;28;20087;-68
2021/09/11 10:53:18;;;;;;;4.50;1.50;;;;;;;;;;5072945;28;20024;-67
2021/09/11 10:55:43;;;;;;;2.83;1.35;;;;;;;;;;5073075;28;20016;-67
2021/09/11 10:58:21;;;;;;;3.67;1.60;;;;;;;;;;5072834;28;20016;-68
2021/09/11 11:01:00;;;;;;;6.20;1.50;;;;;;;;;;5072575;28;20031;-66
2021/09/11 11:03:25;;;;;;;7.45;1.60;;;;;;;;;;5072561;28;20021;-66
2021/09/11 11:06:00;;;;;;;2.60;1.35;;;;;;;;;;5070019;28;20103;-66
2021/09/11 11:08:26;;;;;;;4.30;1.23;;;;;;;;;;5061822;28;20404;-66
2021/09/11 11:10:52;;;;;;;3.05;1.40;;;;;;;;;;5072400;28;20035;-66
2021/09/11 11:13:17;;;;;;;4.75;1.50;;;;;;;;;;5056768;28;20450;-66
2021/09/11 11:15:51;;;;;;;2.85;1.40;;;;;;;;;;5067433;28;20086;-66
2021/09/11 11:18:16;;;;;;;4.57;1.42;;;;;;;;;;5072825;28;20046;-68
2021/09/11 11:20:42;;;;;;;7.50;1.77;;;;;;;;;;5072600;28;20025;-66
2021/09/11 11:23:07;;;;;;;4.45;1.70;;;;;;;;;;5072397;28;20056;-66
2021/09/11 11:25:35;;;;;;;9.23;1.53;;;;;;;;;;5072429;28;20037;-65
2021/09/11 11:28:01;;;;;;;5.75;1.58;;;;;;;;;;5072672;28;20267;-65
2021/09/11 11:30:26;;;;;;;4.72;1.63;;;;;;;;;;5071717;28;20598;-66
2021/09/11 11:32:51;;;;;;;4.50;1.50;;;;;;;;;;5071746;28;20020;-67
2021/09/11 11:35:18;;;;;;;3.78;1.48;;;;;;;;;;5072177;28;20016;-65
2021/09/11 11:37:43;;;;;;;5.07;1.58;;;;;;;;;;5071986;28;20040;-66
2021/09/11 11:40:10;;;;;;;3.17;1.50;;;;;;;;;;5071735;28;20385;-67
2021/09/11 11:42:35;;;;;;;8.90;1.60;;;;;;;;;;5071664;28;20031;-65
2021/09/11 11:45:03;;;;;;;5.65;1.77;;;;;;;;;;5072239;28;20021;-67
2021/09/11 11:47:28;;;;;;;5.45;1.40;;;;;;;;;;5072125;28;20020;-66
2021/09/11 11:49:53;;;;;;;12.87;1.80;;;;;;;;;;5071769;28;20039;-67
2021/09/11 11:52:19;;;;;;;6.15;1.92;;;;;;;;;;5071490;28;20274;-67
2021/09/11 11:54:45;;;;;;;7.53;2.10;;;;;;;;;;5071027;28;20512;-66
2021/09/11 11:57:15;;;;;;;3.00;1.75;;;;;;;;;;5072051;28;20028;-67
2021/09/11 11:59:40;;;;;;;7.82;1.50;;;;;;;;;;5071928;28;20045;-69
2021/09/11 12:02:22;;;;;;;6.10;1.80;;;;;;;;;;5064869;28;20615;-67
2021/09/11 12:04:48;;;;;;;5.78;1.75;;;;;;;;;;5067116;28;20469;-67
2021/09/11 12:07:29;;;;;;;7.30;2.33;;;;;;;;;;5069717;28;20035;-66
2021/09/11 12:10:00;;;;;;;4.38;1.92;;;;;;;;;;5071461;28;20427;-68
2021/09/11 12:12:25;;;;;;;2.97;1.50;;;;;;;;;;5068578;28;20024;-68
2021/09/11 12:14:50;;;;;;;5.82;1.45;;;;;;;;;;5064838;28;20033;-67
2021/09/11 12:17:16;;;;;;;8.40;2.13;;;;;;;;;;5067743;28;20021;-68
2021/09/11 12:19:42;;;;;;;3.80;1.45;;;;;;;;;;5070656;28;20265;-68
2021/09/11 12:22:20;;;;;;;4.70;1.33;;;;;;;;;;5070199;28;20044;-68
2021/09/11 12:24:46;;;;;;;5.35;1.85;;;;;;;;;;5061961;28;20595;-68
2021/09/11 12:27:12;;;;;;;6.30;1.65;;;;;;;;;;5069301;28;20024;-67
2021/09/11 12:29:37;;;;;;;2.20;1.30;;;;;;;;;;5069680;28;20107;-67
2021/09/11 12:32:05;;;;;;;2.93;1.53;;;;;;;;;;5068493;28;20548;-68
2021/09/11 12:34:31;;;;;;;6.07;1.55;;;;;;;;;;5067729;28;20649;-66
2021/09/11 12:36:56;;;;;;;3.60;1.40;;;;;;;;;;5069470;28;20016;-68
2021/09/11 12:39:21;;;;;;;2.30;1.23;;;;;;;;;;5069222;28;20384;-67
2021/09/11 12:41:50;;;;;;;2.47;1.13;;;;;;;;;;5069024;28;20025;-68
2021/09/11 12:44:16;;;;;;;6.68;1.40;;;;;;;;;;5054206;28;20040;-68
2021/09/11 12:46:48;;;;;;;9.10;1.80;;;;;;;;;;5070161;28;20032;-68
2021/09/11 12:49:13;;;;;;;5.90;1.60;;;;;;;;;;5070931;28;20432;-68
2021/09/11 12:51:40;;;;;;;4.40;1.70;;;;;;;;;;5069937;28;20089;-67
2021/09/11 12:54:06;;;;;;;5.57;1.58;;;;;;;;;;5070413;28;20099;-67
2021/09/11 12:56:31;;;;;;;6.47;1.60;;;;;;;;;;5070427;28;20139;-66
2021/09/11 12:58:58;;;;;;;2.78;1.63;;;;;;;;;;5070484;28;20024;-67
2021/09/11 13:01:23;;;;;;;3.90;1.70;;;;;;;;;;5070446;28;20024;-68
2021/09/11 13:03:49;;;;;;;6.78;1.48;;;;;;;;;;5070361;28;20047;-68
2021/09/11 13:06:14;;;;;;;2.88;1.27;;;;;;;;;;5070273;28;20027;-66
2021/09/11 13:08:40;;;;;;;4.13;1.70;;;;;;;;;;5070491;28;20485;-67
2021/09/11 13:11:05;;;;;;;3.05;1.65;;;;;;;;;;5070348;28;20066;-67
2021/09/11 13:13:30;;;;;;;6.80;1.57;;;;;;;;;;5070077;28;20032;-68
2021/09/11 13:15:56;;;;;;;4.33;1.77;;;;;;;;;;5070530;28;20251;-68
2021/09/11 13:18:21;;;;;;;5.95;2.83;;;;;;;;;;5066480;28;20305;-68
2021/09/11 13:20:47;;;;;;;3.97;1.77;;;;;;;;;;5056131;28;20021;-66
2021/09/11 13:23:12;;;;;;;4.33;2.53;;;;;;;;;;5064205;28;20340;-68
2021/09/11 13:25:37;;;;;;;3.97;2.20;;;;;;;;;;5070538;28;20736;-66
2021/09/11 13:28:03;;;;;;;4.77;1.80;;;;;;;;;;5070000;28;20024;-68
2021/09/11 13:30:28;;;;;;;3.35;1.65;;;;;;;;;;5070427;28;20452;-68
2021/09/11 13:32:53;;;;;;;3.10;1.60;;;;;;;;;;5070301;28;20029;-66
2021/09/11 13:35:18;;;;;;;2.83;1.50;;;;;;;;;;5070468;28;20259;-68
2021/09/11 13:37:44;;;;;;;3.60;1.70;;;;;;;;;;5070268;28;20021;-65
2021/09/11 13:40:10;;;;;;;2.10;1.35;;;;;;;;;;5070267;28;20040;-66
2021/09/11 13:42:36;;;;;;;4.50;1.08;;;;;;;;;;5073903;28;20062;-66
2021/09/11 13:45:01;;;;;;;6.13;1.50;;;;;;;;;;5074405;28;20028;-68
2021/09/11 13:47:26;;;;;;;2.63;1.55;;;;;;;;;;5074054;28;20304;-66
2021/09/11 13:49:51;;;;;;;7.77;2.03;;;;;;;;;;5074293;28;20024;-68
2021/09/11 13:52:16;;;;;;;3.63;1.80;;;;;;;;;;5073378;28;20763;-68
2021/09/11 13:54:44;;;;;;;4.70;2.00;;;;;;;;;;5073995;28;20282;-68
2021/09/11 13:57:10;;;;;;;2.85;1.75;;;;;;;;;;5074125;28;20308;-67
2021/09/11 13:59:37;;;;;;;4.90;2.10;;;;;;;;;;5074218;28;20433;-68
2021/09/11 14:02:03;;;;;;;4.60;1.90;;;;;;;;;;5073754;28;20053;-66
2021/09/11 14:04:28;;;;;;;2.53;1.55;;;;;;;;;;5073777;28;20055;-68
2021/09/11 14:06:53;;;;;;;6.57;1.80;;;;;;;;;;5073915;28;20050;-66
2021/09/11 14:09:18;;;;;;;3.23;2.03;;;;;;;;;;5073797;28;20055;-66
2021/09/11 14:11:43;;;;;;;2.87;1.47;;;;;;;;;;5073439;28;20626;-68
2021/09/11 14:14:08;;;;;;;4.63;1.50;;;;;;;;;;5073652;28;20335;-65
2021/09/11 14:16:34;;;;;;;2.50;1.50;;;;;;;;;;5073838;28;20017;-66
2021/09/11 14:18:59;;;;;;;3.17;1.60;;;;;;;;;;5073676;28;20444;-67
2021/09/11 14:21:24;;;;;;;3.55;1.70;;;;;;;;;;5073401;28;20262;-65
2021/09/11 14:23:49;;;;;;;2.93;1.93;;;;;;;;;;5073354;28;20481;-66
2021/09/11 14:26:14;;;;;;;8.10;1.33;;;;;;;;;;5072224;28;20366;-66
2021/09/11 14:28:40;;;;;;;5.47;1.40;;;;;;;;;;5073652;28;20258;-66
2021/09/11 14:31:05;;;;;;;4.18;1.85;;;;;;;;;;5073387;28;20696;-67
2021/09/11 14:33:30;;;;;;;3.88;2.00;;;;;;;;;;5073267;28;20056;-65